sensor_id;sensor_type;location;lat;lon;timestamp;P1;durP1;ratioP1;P2;durP2;ratioP2
69822;SDS011;57119;52.516;13.508;2023-12-14T00:00:32;19.50;;;7.50;;
69822;SDS011;57119;52.516;13.508;2023-12-14T00:02:58;18.13;;;7.27;;
69822;SDS011;57119;52.516;13.508;2023-12-14T00:05:23;25.97;;;9.40;;
69822;SDS011;57119;52.516;13.508;2023-12-14T00:07:48;24.23;;;8.93;;
69822;SDS011;57119;52.516;13.508;2023-12-14T00:10:14;21.33;;;8.50;;
69822;SDS011;57119;52.516;13.508;2023-12-14T00:12:39;19.85;;;8.10;;
69822;SDS011;57119;52.516;13.508;2023-12-14T00:15:05;21.90;;;8.80;;
69822;SDS011;57119;52.516;13.508;2023-12-14T00:17:31;21.58;;;8.73;;
69822;SDS011;57119;52.516;13.508;2023-12-14T00:19:57;21.70;;;8.97;;
69822;SDS011;57119;52.516;13.508;2023-12-14T00:22:22;23.30;;;8.90;;
69822;SDS011;57119;52.516;13.508;2023-12-14T00:24:47;21.37;;;9.03;;
69822;SDS011;57119;52.516;13.508;2023-12-14T00:27:13;19.77;;;8.50;;
69822;SDS011;57119;52.516;13.508;2023-12-14T00:29:38;19.63;;;7.85;;
69822;SDS011;57119;52.516;13.508;2023-12-14T00:32:04;22.17;;;8.97;;
69822;SDS011;57119;52.516;13.508;2023-12-14T00:34:29;21.67;;;8.27;;
69822;SDS011;57119;52.516;13.508;2023-12-14T00:36:55;22.90;;;8.50;;
69822;SDS011;57119;52.516;13.508;2023-12-14T00:39:20;23.80;;;8.30;;
69822;SDS011;57119;52.516;13.508;2023-12-14T00:41:46;21.67;;;8.57;;
69822;SDS011;57119;52.516;13.508;2023-12-14T00:44:11;24.48;;;8.88;;
69822;SDS011;57119;52.516;13.508;2023-12-14T00:46:37;22.63;;;8.43;;
69822;SDS011;57119;52.516;13.508;2023-12-14T00:49:02;22.70;;;8.83;;
69822;SDS011;57119;52.516;13.508;2023-12-14T00:51:28;18.80;;;6.80;;
69822;SDS011;57119;52.516;13.508;2023-12-14T00:53:53;16.00;;;7.17;;
69822;SDS011;57119;52.516;13.508;2023-12-14T00:56:19;21.13;;;8.30;;
69822;SDS011;57119;52.516;13.508;2023-12-14T00:58:44;19.57;;;7.70;;
69822;SDS011;57119;52.516;13.508;2023-12-14T01:01:09;19.53;;;7.37;;
69822;SDS011;57119;52.516;13.508;2023-12-14T01:03:35;15.97;;;6.80;;
69822;SDS011;57119;52.516;13.508;2023-12-14T01:06:00;18.70;;;7.30;;
69822;SDS011;57119;52.516;13.508;2023-12-14T01:08:26;18.95;;;7.20;;
69822;SDS011;57119;52.516;13.508;2023-12-14T01:10:51;18.93;;;7.43;;
69822;SDS011;57119;52.516;13.508;2023-12-14T01:13:16;18.27;;;6.80;;
69822;SDS011;57119;52.516;13.508;2023-12-14T01:15:42;17.15;;;6.97;;
69822;SDS011;57119;52.516;13.508;2023-12-14T01:18:08;18.87;;;8.00;;
69822;SDS011;57119;52.516;13.508;2023-12-14T01:20:33;22.93;;;7.27;;
69822;SDS011;57119;52.516;13.508;2023-12-14T01:22:58;19.80;;;7.67;;
69822;SDS011;57119;52.516;13.508;2023-12-14T01:25:27;21.75;;;7.75;;
69822;SDS011;57119;52.516;13.508;2023-12-14T01:27:52;17.33;;;7.13;;
69822;SDS011;57119;52.516;13.508;2023-12-14T01:30:18;19.47;;;7.57;;
69822;SDS011;57119;52.516;13.508;2023-12-14T01:32:43;16.98;;;7.72;;
69822;SDS011;57119;52.516;13.508;2023-12-14T01:35:09;20.17;;;7.47;;
69822;SDS011;57119;52.516;13.508;2023-12-14T01:37:34;18.57;;;7.63;;
69822;SDS011;57119;52.516;13.508;2023-12-14T01:39:59;21.37;;;7.50;;
69822;SDS011;57119;52.516;13.508;2023-12-14T01:42:25;18.90;;;7.15;;
69822;SDS011;57119;52.516;13.508;2023-12-14T01:44:51;20.73;;;7.73;;
69822;SDS011;57119;52.516;13.508;2023-12-14T01:47:16;21.10;;;7.80;;
69822;SDS011;57119;52.516;13.508;2023-12-14T01:49:42;18.80;;;7.20;;
69822;SDS011;57119;52.516;13.508;2023-12-14T01:52:07;16.53;;;6.03;;
69822;SDS011;57119;52.516;13.508;2023-12-14T01:54:33;17.53;;;6.13;;
69822;SDS011;57119;52.516;13.508;2023-12-14T01:56:58;15.68;;;6.15;;
69822;SDS011;57119;52.516;13.508;2023-12-14T01:59:24;17.07;;;6.00;;
69822;SDS011;57119;52.516;13.508;2023-12-14T02:01:52;15.17;;;6.07;;
69822;SDS011;57119;52.516;13.508;2023-12-14T02:04:21;17.80;;;6.40;;
69822;SDS011;57119;52.516;13.508;2023-12-14T02:06:48;15.07;;;5.90;;
69822;SDS011;57119;52.516;13.508;2023-12-14T02:09:13;15.03;;;6.17;;
69822;SDS011;57119;52.516;13.508;2023-12-14T02:11:39;15.07;;;5.20;;
69822;SDS011;57119;52.516;13.508;2023-12-14T02:14:08;15.47;;;5.73;;
69822;SDS011;57119;52.516;13.508;2023-12-14T02:16:34;15.80;;;6.15;;
69822;SDS011;57119;52.516;13.508;2023-12-14T02:19:00;14.63;;;5.93;;
69822;SDS011;57119;52.516;13.508;2023-12-14T02:21:25;14.82;;;5.85;;
69822;SDS011;57119;52.516;13.508;2023-12-14T02:23:51;13.73;;;5.33;;
69822;SDS011;57119;52.516;13.508;2023-12-14T02:26:16;14.10;;;5.50;;
69822;SDS011;57119;52.516;13.508;2023-12-14T02:28:41;13.83;;;5.03;;
69822;SDS011;57119;52.516;13.508;2023-12-14T02:31:07;13.13;;;5.40;;
69822;SDS011;57119;52.516;13.508;2023-12-14T02:33:32;15.68;;;6.32;;
69822;SDS011;57119;52.516;13.508;2023-12-14T02:35:58;15.10;;;6.30;;
69822;SDS011;57119;52.516;13.508;2023-12-14T02:38:24;15.40;;;6.30;;
69822;SDS011;57119;52.516;13.508;2023-12-14T02:40:49;14.77;;;6.23;;
69822;SDS011;57119;52.516;13.508;2023-12-14T02:43:20;16.23;;;5.68;;
69822;SDS011;57119;52.516;13.508;2023-12-14T02:45:45;17.37;;;6.27;;
69822;SDS011;57119;52.516;13.508;2023-12-14T02:48:12;15.90;;;6.22;;
69822;SDS011;57119;52.516;13.508;2023-12-14T02:50:47;15.52;;;6.03;;
69822;SDS011;57119;52.516;13.508;2023-12-14T02:53:21;14.98;;;6.13;;
69822;SDS011;57119;52.516;13.508;2023-12-14T02:55:51;15.57;;;5.73;;
69822;SDS011;57119;52.516;13.508;2023-12-14T02:58:20;15.27;;;6.60;;
69822;SDS011;57119;52.516;13.508;2023-12-14T03:00:48;15.75;;;6.25;;
69822;SDS011;57119;52.516;13.508;2023-12-14T03:03:20;15.27;;;5.85;;
69822;SDS011;57119;52.516;13.508;2023-12-14T03:05:55;18.70;;;6.80;;
69822;SDS011;57119;52.516;13.508;2023-12-14T03:08:35;18.15;;;7.25;;
69822;SDS011;57119;52.516;13.508;2023-12-14T03:11:20;18.17;;;6.13;;
69822;SDS011;57119;52.516;13.508;2023-12-14T03:13:55;14.77;;;6.28;;
69822;SDS011;57119;52.516;13.508;2023-12-14T03:16:21;17.98;;;7.07;;
69822;SDS011;57119;52.516;13.508;2023-12-14T03:18:46;15.27;;;5.83;;
69822;SDS011;57119;52.516;13.508;2023-12-14T03:21:34;17.23;;;5.95;;
69822;SDS011;57119;52.516;13.508;2023-12-14T03:24:08;16.20;;;6.03;;
69822;SDS011;57119;52.516;13.508;2023-12-14T03:26:36;16.33;;;6.57;;
69822;SDS011;57119;52.516;13.508;2023-12-14T03:29:22;17.70;;;6.75;;
69822;SDS011;57119;52.516;13.508;2023-12-14T03:31:50;16.90;;;5.90;;
69822;SDS011;57119;52.516;13.508;2023-12-14T03:34:25;16.67;;;6.00;;
69822;SDS011;57119;52.516;13.508;2023-12-14T03:36:54;14.80;;;5.60;;
69822;SDS011;57119;52.516;13.508;2023-12-14T03:39:20;13.32;;;5.72;;
69822;SDS011;57119;52.516;13.508;2023-12-14T03:41:55;16.10;;;6.13;;
69822;SDS011;57119;52.516;13.508;2023-12-14T03:44:23;19.40;;;6.38;;
69822;SDS011;57119;52.516;13.508;2023-12-14T03:46:55;16.73;;;5.95;;
69822;SDS011;57119;52.516;13.508;2023-12-14T03:49:25;17.07;;;6.33;;
69822;SDS011;57119;52.516;13.508;2023-12-14T03:51:57;15.32;;;5.97;;
69822;SDS011;57119;52.516;13.508;2023-12-14T03:56:51;11.68;;;4.85;;
69822;SDS011;57119;52.516;13.508;2023-12-14T03:59:20;15.73;;;5.63;;
69822;SDS011;57119;52.516;13.508;2023-12-14T04:01:48;15.45;;;6.20;;
69822;SDS011;57119;52.516;13.508;2023-12-14T04:04:19;16.25;;;5.35;;
69822;SDS011;57119;52.516;13.508;2023-12-14T04:07:08;13.57;;;5.30;;
69822;SDS011;57119;52.516;13.508;2023-12-14T04:09:34;12.10;;;4.60;;
69822;SDS011;57119;52.516;13.508;2023-12-14T04:12:00;14.63;;;5.70;;
69822;SDS011;57119;52.516;13.508;2023-12-14T04:14:41;15.50;;;5.32;;
69822;SDS011;57119;52.516;13.508;2023-12-14T04:17:10;13.53;;;4.87;;
69822;SDS011;57119;52.516;13.508;2023-12-14T04:19:39;13.25;;;5.00;;
69822;SDS011;57119;52.516;13.508;2023-12-14T04:22:05;13.35;;;4.78;;
69822;SDS011;57119;52.516;13.508;2023-12-14T04:24:31;12.93;;;4.87;;
69822;SDS011;57119;52.516;13.508;2023-12-14T04:26:57;14.68;;;5.32;;
69822;SDS011;57119;52.516;13.508;2023-12-14T04:29:28;13.43;;;5.27;;
69822;SDS011;57119;52.516;13.508;2023-12-14T04:31:59;12.05;;;4.85;;
69822;SDS011;57119;52.516;13.508;2023-12-14T04:34:27;14.02;;;5.50;;
69822;SDS011;57119;52.516;13.508;2023-12-14T04:36:55;15.30;;;5.20;;
69822;SDS011;57119;52.516;13.508;2023-12-14T04:39:27;13.27;;;5.07;;
69822;SDS011;57119;52.516;13.508;2023-12-14T04:41:58;12.75;;;4.90;;
69822;SDS011;57119;52.516;13.508;2023-12-14T04:44:26;14.40;;;4.63;;
69822;SDS011;57119;52.516;13.508;2023-12-14T04:46:54;14.23;;;5.93;;
69822;SDS011;57119;52.516;13.508;2023-12-14T04:49:20;12.93;;;4.93;;
69822;SDS011;57119;52.516;13.508;2023-12-14T04:51:48;13.05;;;4.90;;
69822;SDS011;57119;52.516;13.508;2023-12-14T04:54:14;13.30;;;4.83;;
69822;SDS011;57119;52.516;13.508;2023-12-14T04:56:40;13.15;;;4.65;;
69822;SDS011;57119;52.516;13.508;2023-12-14T04:59:09;12.95;;;5.05;;
69822;SDS011;57119;52.516;13.508;2023-12-14T05:01:40;11.47;;;4.90;;
69822;SDS011;57119;52.516;13.508;2023-12-14T05:04:09;11.88;;;5.20;;
69822;SDS011;57119;52.516;13.508;2023-12-14T05:06:40;11.23;;;5.13;;
69822;SDS011;57119;52.516;13.508;2023-12-14T05:09:06;13.97;;;5.53;;
69822;SDS011;57119;52.516;13.508;2023-12-14T05:11:41;15.52;;;5.28;;
69822;SDS011;57119;52.516;13.508;2023-12-14T05:14:16;14.30;;;5.97;;
69822;SDS011;57119;52.516;13.508;2023-12-14T05:16:43;13.52;;;5.43;;
69822;SDS011;57119;52.516;13.508;2023-12-14T05:19:20;15.00;;;5.17;;
69822;SDS011;57119;52.516;13.508;2023-12-14T05:21:51;13.05;;;6.22;;
69822;SDS011;57119;52.516;13.508;2023-12-14T05:24:20;14.52;;;6.18;;
69822;SDS011;57119;52.516;13.508;2023-12-14T05:26:46;12.80;;;5.63;;
69822;SDS011;57119;52.516;13.508;2023-12-14T05:29:17;12.75;;;5.60;;
69822;SDS011;57119;52.516;13.508;2023-12-14T05:31:46;15.13;;;6.30;;
69822;SDS011;57119;52.516;13.508;2023-12-14T05:34:12;11.73;;;5.68;;
69822;SDS011;57119;52.516;13.508;2023-12-14T05:36:40;12.80;;;6.10;;
69822;SDS011;57119;52.516;13.508;2023-12-14T05:39:24;12.25;;;5.28;;
69822;SDS011;57119;52.516;13.508;2023-12-14T05:42:05;12.45;;;5.28;;
69822;SDS011;57119;52.516;13.508;2023-12-14T05:44:30;13.03;;;5.33;;
69822;SDS011;57119;52.516;13.508;2023-12-14T05:46:56;12.47;;;5.27;;
69822;SDS011;57119;52.516;13.508;2023-12-14T05:49:21;14.93;;;5.80;;
69822;SDS011;57119;52.516;13.508;2023-12-14T05:51:47;12.68;;;5.22;;
69822;SDS011;57119;52.516;13.508;2023-12-14T05:54:12;12.30;;;4.87;;
69822;SDS011;57119;52.516;13.508;2023-12-14T05:56:37;12.07;;;5.47;;
69822;SDS011;57119;52.516;13.508;2023-12-14T05:59:03;13.13;;;5.47;;
69822;SDS011;57119;52.516;13.508;2023-12-14T06:01:28;12.93;;;5.97;;
69822;SDS011;57119;52.516;13.508;2023-12-14T06:03:54;17.00;;;5.80;;
69822;SDS011;57119;52.516;13.508;2023-12-14T06:06:19;11.03;;;4.97;;
69822;SDS011;57119;52.516;13.508;2023-12-14T06:08:44;11.00;;;4.77;;
69822;SDS011;57119;52.516;13.508;2023-12-14T06:11:10;11.00;;;4.87;;
69822;SDS011;57119;52.516;13.508;2023-12-14T06:13:35;10.10;;;4.28;;
69822;SDS011;57119;52.516;13.508;2023-12-14T06:16:00;10.87;;;4.87;;
69822;SDS011;57119;52.516;13.508;2023-12-14T06:18:26;11.20;;;4.23;;
69822;SDS011;57119;52.516;13.508;2023-12-14T06:20:51;12.30;;;5.47;;
69822;SDS011;57119;52.516;13.508;2023-12-14T06:23:17;11.53;;;4.43;;
69822;SDS011;57119;52.516;13.508;2023-12-14T06:25:43;12.63;;;4.75;;
69822;SDS011;57119;52.516;13.508;2023-12-14T06:28:08;11.77;;;4.77;;
69822;SDS011;57119;52.516;13.508;2023-12-14T06:30:34;11.50;;;5.03;;
69822;SDS011;57119;52.516;13.508;2023-12-14T06:32:59;11.50;;;5.23;;
69822;SDS011;57119;52.516;13.508;2023-12-14T06:35:24;11.23;;;5.07;;
69822;SDS011;57119;52.516;13.508;2023-12-14T06:37:50;14.65;;;5.32;;
69822;SDS011;57119;52.516;13.508;2023-12-14T06:40:16;11.17;;;5.17;;
69822;SDS011;57119;52.516;13.508;2023-12-14T06:42:41;12.25;;;4.78;;
69822;SDS011;57119;52.516;13.508;2023-12-14T06:45:07;12.00;;;4.87;;
69822;SDS011;57119;52.516;13.508;2023-12-14T06:47:33;13.10;;;6.07;;
69822;SDS011;57119;52.516;13.508;2023-12-14T06:49:58;11.53;;;5.23;;
69822;SDS011;57119;52.516;13.508;2023-12-14T06:52:24;11.50;;;5.00;;
69822;SDS011;57119;52.516;13.508;2023-12-14T06:54:49;13.05;;;5.90;;
69822;SDS011;57119;52.516;13.508;2023-12-14T06:57:15;12.33;;;5.63;;
69822;SDS011;57119;52.516;13.508;2023-12-14T06:59:40;11.77;;;5.27;;
69822;SDS011;57119;52.516;13.508;2023-12-14T07:02:06;12.63;;;5.83;;
69822;SDS011;57119;52.516;13.508;2023-12-14T07:04:31;14.05;;;6.05;;
69822;SDS011;57119;52.516;13.508;2023-12-14T07:06:57;12.90;;;6.50;;
69822;SDS011;57119;52.516;13.508;2023-12-14T07:09:23;13.70;;;5.72;;
69822;SDS011;57119;52.516;13.508;2023-12-14T07:11:48;13.67;;;6.13;;
69822;SDS011;57119;52.516;13.508;2023-12-14T07:14:14;13.23;;;5.80;;
69822;SDS011;57119;52.516;13.508;2023-12-14T07:16:42;14.30;;;5.65;;
69822;SDS011;57119;52.516;13.508;2023-12-14T07:19:07;14.27;;;6.03;;
69822;SDS011;57119;52.516;13.508;2023-12-14T07:21:33;14.17;;;5.63;;
69822;SDS011;57119;52.516;13.508;2023-12-14T07:23:58;14.40;;;5.80;;
69822;SDS011;57119;52.516;13.508;2023-12-14T07:26:24;14.53;;;6.37;;
69822;SDS011;57119;52.516;13.508;2023-12-14T07:28:49;13.67;;;6.30;;
69822;SDS011;57119;52.516;13.508;2023-12-14T07:31:15;12.47;;;6.00;;
69822;SDS011;57119;52.516;13.508;2023-12-14T07:33:40;13.50;;;5.73;;
69822;SDS011;57119;52.516;13.508;2023-12-14T07:36:08;13.90;;;6.40;;
69822;SDS011;57119;52.516;13.508;2023-12-14T07:38:34;12.73;;;5.63;;
69822;SDS011;57119;52.516;13.508;2023-12-14T07:40:59;12.67;;;5.77;;
69822;SDS011;57119;52.516;13.508;2023-12-14T07:43:24;15.00;;;5.87;;
69822;SDS011;57119;52.516;13.508;2023-12-14T07:45:50;31.97;;;14.70;;
69822;SDS011;57119;52.516;13.508;2023-12-14T07:48:15;13.67;;;7.33;;
69822;SDS011;57119;52.516;13.508;2023-12-14T07:50:40;14.67;;;6.77;;
69822;SDS011;57119;52.516;13.508;2023-12-14T07:53:06;17.77;;;6.68;;
69822;SDS011;57119;52.516;13.508;2023-12-14T07:55:31;17.57;;;7.27;;
69822;SDS011;57119;52.516;13.508;2023-12-14T07:57:56;14.53;;;6.87;;
69822;SDS011;57119;52.516;13.508;2023-12-14T08:00:22;14.63;;;6.83;;
69822;SDS011;57119;52.516;13.508;2023-12-14T08:02:47;16.27;;;6.70;;
69822;SDS011;57119;52.516;13.508;2023-12-14T08:05:12;16.27;;;6.87;;
69822;SDS011;57119;52.516;13.508;2023-12-14T08:07:38;15.35;;;6.93;;
69822;SDS011;57119;52.516;13.508;2023-12-14T08:10:03;16.10;;;7.13;;
69822;SDS011;57119;52.516;13.508;2023-12-14T08:12:29;15.60;;;6.67;;
69822;SDS011;57119;52.516;13.508;2023-12-14T08:14:54;17.70;;;7.20;;
69822;SDS011;57119;52.516;13.508;2023-12-14T08:17:19;16.77;;;7.70;;
69822;SDS011;57119;52.516;13.508;2023-12-14T08:19:45;15.63;;;7.28;;
69822;SDS011;57119;52.516;13.508;2023-12-14T08:22:11;18.70;;;7.67;;
69822;SDS011;57119;52.516;13.508;2023-12-14T08:24:40;17.48;;;7.63;;
69822;SDS011;57119;52.516;13.508;2023-12-14T08:27:06;17.42;;;7.78;;
69822;SDS011;57119;52.516;13.508;2023-12-14T08:29:31;15.77;;;7.20;;
69822;SDS011;57119;52.516;13.508;2023-12-14T08:31:57;15.43;;;6.87;;
69822;SDS011;57119;52.516;13.508;2023-12-14T08:34:27;18.50;;;8.20;;
69822;SDS011;57119;52.516;13.508;2023-12-14T08:36:52;15.90;;;6.80;;
69822;SDS011;57119;52.516;13.508;2023-12-14T08:39:18;17.70;;;8.33;;
69822;SDS011;57119;52.516;13.508;2023-12-14T08:41:45;15.30;;;7.37;;
69822;SDS011;57119;52.516;13.508;2023-12-14T08:44:11;19.50;;;7.72;;
69822;SDS011;57119;52.516;13.508;2023-12-14T08:46:40;15.83;;;7.20;;
69822;SDS011;57119;52.516;13.508;2023-12-14T08:49:07;16.35;;;7.32;;
69822;SDS011;57119;52.516;13.508;2023-12-14T08:51:32;16.20;;;7.73;;
69822;SDS011;57119;52.516;13.508;2023-12-14T08:53:57;15.32;;;7.68;;
69822;SDS011;57119;52.516;13.508;2023-12-14T08:56:23;17.63;;;7.93;;
69822;SDS011;57119;52.516;13.508;2023-12-14T08:58:48;16.83;;;7.37;;
69822;SDS011;57119;52.516;13.508;2023-12-14T09:01:19;18.53;;;7.47;;
69822;SDS011;57119;52.516;13.508;2023-12-14T09:03:45;15.93;;;7.13;;
69822;SDS011;57119;52.516;13.508;2023-12-14T09:06:11;16.00;;;7.27;;
69822;SDS011;57119;52.516;13.508;2023-12-14T09:08:36;16.20;;;7.27;;
69822;SDS011;57119;52.516;13.508;2023-12-14T09:11:01;16.60;;;7.00;;
69822;SDS011;57119;52.516;13.508;2023-12-14T09:13:27;17.45;;;7.50;;
69822;SDS011;57119;52.516;13.508;2023-12-14T09:15:52;14.53;;;6.50;;
69822;SDS011;57119;52.516;13.508;2023-12-14T09:18:19;14.48;;;7.05;;
69822;SDS011;57119;52.516;13.508;2023-12-14T09:20:45;13.63;;;6.13;;
69822;SDS011;57119;52.516;13.508;2023-12-14T09:23:10;16.75;;;6.68;;
69822;SDS011;57119;52.516;13.508;2023-12-14T09:25:36;12.60;;;5.97;;
69822;SDS011;57119;52.516;13.508;2023-12-14T09:28:01;13.17;;;5.93;;
69822;SDS011;57119;52.516;13.508;2023-12-14T09:30:26;13.40;;;6.00;;
69822;SDS011;57119;52.516;13.508;2023-12-14T09:32:52;13.00;;;6.27;;
69822;SDS011;57119;52.516;13.508;2023-12-14T09:35:17;13.63;;;6.13;;
69822;SDS011;57119;52.516;13.508;2023-12-14T09:37:43;12.88;;;5.60;;
69822;SDS011;57119;52.516;13.508;2023-12-14T09:40:08;12.03;;;5.80;;
69822;SDS011;57119;52.516;13.508;2023-12-14T09:42:37;15.83;;;6.77;;
69822;SDS011;57119;52.516;13.508;2023-12-14T09:45:06;13.90;;;6.00;;
69822;SDS011;57119;52.516;13.508;2023-12-14T09:47:33;15.20;;;5.47;;
69822;SDS011;57119;52.516;13.508;2023-12-14T09:49:59;12.45;;;5.55;;
69822;SDS011;57119;52.516;13.508;2023-12-14T09:52:25;13.10;;;5.78;;
69822;SDS011;57119;52.516;13.508;2023-12-14T09:54:51;14.13;;;5.83;;
69822;SDS011;57119;52.516;13.508;2023-12-14T09:57:18;16.17;;;5.90;;
69822;SDS011;57119;52.516;13.508;2023-12-14T09:59:50;14.57;;;6.25;;
69822;SDS011;57119;52.516;13.508;2023-12-14T10:02:16;16.33;;;7.45;;
69822;SDS011;57119;52.516;13.508;2023-12-14T10:04:42;15.13;;;6.87;;
69822;SDS011;57119;52.516;13.508;2023-12-14T10:07:08;16.77;;;7.15;;
69822;SDS011;57119;52.516;13.508;2023-12-14T10:09:34;15.87;;;6.90;;
69822;SDS011;57119;52.516;13.508;2023-12-14T10:12:05;15.38;;;6.93;;
69822;SDS011;57119;52.516;13.508;2023-12-14T10:14:33;17.20;;;7.17;;
69822;SDS011;57119;52.516;13.508;2023-12-14T10:16:59;17.90;;;7.20;;
69822;SDS011;57119;52.516;13.508;2023-12-14T10:19:44;16.40;;;7.32;;
69822;SDS011;57119;52.516;13.508;2023-12-14T10:22:10;17.90;;;7.35;;
69822;SDS011;57119;52.516;13.508;2023-12-14T10:24:36;16.17;;;7.28;;
69822;SDS011;57119;52.516;13.508;2023-12-14T10:27:05;23.80;;;10.43;;
69822;SDS011;57119;52.516;13.508;2023-12-14T10:29:34;20.83;;;9.48;;
69822;SDS011;57119;52.516;13.508;2023-12-14T10:32:05;15.20;;;7.40;;
69822;SDS011;57119;52.516;13.508;2023-12-14T10:34:32;17.83;;;7.43;;
69822;SDS011;57119;52.516;13.508;2023-12-14T10:36:58;15.13;;;7.03;;
69822;SDS011;57119;52.516;13.508;2023-12-14T10:39:24;15.45;;;7.30;;
69822;SDS011;57119;52.516;13.508;2023-12-14T10:41:51;17.05;;;7.53;;
69822;SDS011;57119;52.516;13.508;2023-12-14T10:44:19;16.67;;;7.57;;
69822;SDS011;57119;52.516;13.508;2023-12-14T10:46:47;15.88;;;7.53;;
69822;SDS011;57119;52.516;13.508;2023-12-14T10:49:13;17.00;;;6.88;;
69822;SDS011;57119;52.516;13.508;2023-12-14T10:51:40;17.05;;;7.43;;
69822;SDS011;57119;52.516;13.508;2023-12-14T10:54:07;19.05;;;8.75;;
69822;SDS011;57119;52.516;13.508;2023-12-14T10:56:34;19.43;;;8.87;;
69822;SDS011;57119;52.516;13.508;2023-12-14T10:58:59;17.23;;;7.63;;
69822;SDS011;57119;52.516;13.508;2023-12-14T11:01:26;17.17;;;7.80;;
69822;SDS011;57119;52.516;13.508;2023-12-14T11:03:55;17.42;;;7.18;;
69822;SDS011;57119;52.516;13.508;2023-12-14T11:08:53;15.87;;;7.17;;
69822;SDS011;57119;52.516;13.508;2023-12-14T11:11:20;16.55;;;7.53;;
69822;SDS011;57119;52.516;13.508;2023-12-14T11:13:48;17.27;;;6.82;;
69822;SDS011;57119;52.516;13.508;2023-12-14T11:16:17;15.02;;;6.80;;
69822;SDS011;57119;52.516;13.508;2023-12-14T11:18:45;15.77;;;6.83;;
69822;SDS011;57119;52.516;13.508;2023-12-14T11:21:10;16.67;;;7.85;;
69822;SDS011;57119;52.516;13.508;2023-12-14T11:23:45;16.37;;;7.00;;
69822;SDS011;57119;52.516;13.508;2023-12-14T11:26:10;16.83;;;7.63;;
69822;SDS011;57119;52.516;13.508;2023-12-14T11:28:37;15.77;;;7.53;;
69822;SDS011;57119;52.516;13.508;2023-12-14T11:31:08;15.13;;;6.55;;
69822;SDS011;57119;52.516;13.508;2023-12-14T11:33:35;19.52;;;9.05;;
69822;SDS011;57119;52.516;13.508;2023-12-14T11:36:01;13.90;;;7.20;;
69822;SDS011;57119;52.516;13.508;2023-12-14T11:38:31;14.38;;;6.97;;
69822;SDS011;57119;52.516;13.508;2023-12-14T11:40:57;13.40;;;6.80;;
69822;SDS011;57119;52.516;13.508;2023-12-14T11:43:24;14.73;;;7.00;;
69822;SDS011;57119;52.516;13.508;2023-12-14T11:45:51;14.75;;;7.28;;
69822;SDS011;57119;52.516;13.508;2023-12-14T11:48:17;14.73;;;6.53;;
69822;SDS011;57119;52.516;13.508;2023-12-14T11:50:44;14.07;;;6.50;;
69822;SDS011;57119;52.516;13.508;2023-12-14T11:53:10;14.15;;;6.30;;
69822;SDS011;57119;52.516;13.508;2023-12-14T11:55:40;13.83;;;6.50;;
69822;SDS011;57119;52.516;13.508;2023-12-14T11:58:11;13.48;;;6.72;;
69822;SDS011;57119;52.516;13.508;2023-12-14T12:00:41;13.55;;;6.95;;
69822;SDS011;57119;52.516;13.508;2023-12-14T12:03:07;14.30;;;6.63;;
69822;SDS011;57119;52.516;13.508;2023-12-14T12:08:07;12.75;;;6.25;;
69822;SDS011;57119;52.516;13.508;2023-12-14T12:10:34;13.95;;;6.13;;
69822;SDS011;57119;52.516;13.508;2023-12-14T12:13:07;14.88;;;6.80;;
69822;SDS011;57119;52.516;13.508;2023-12-14T12:15:36;13.90;;;6.40;;
69822;SDS011;57119;52.516;13.508;2023-12-14T12:18:06;15.77;;;6.57;;
69822;SDS011;57119;52.516;13.508;2023-12-14T12:20:33;16.33;;;7.28;;
69822;SDS011;57119;52.516;13.508;2023-12-14T12:22:59;13.77;;;6.80;;
69822;SDS011;57119;52.516;13.508;2023-12-14T12:25:25;16.33;;;6.70;;
69822;SDS011;57119;52.516;13.508;2023-12-14T12:27:52;13.57;;;6.70;;
69822;SDS011;57119;52.516;13.508;2023-12-14T12:30:21;15.65;;;6.45;;
69822;SDS011;57119;52.516;13.508;2023-12-14T12:32:48;14.43;;;6.72;;
69822;SDS011;57119;52.516;13.508;2023-12-14T12:35:15;11.90;;;5.75;;
69822;SDS011;57119;52.516;13.508;2023-12-14T12:37:40;14.00;;;6.80;;
69822;SDS011;57119;52.516;13.508;2023-12-14T12:40:05;12.33;;;5.93;;
69822;SDS011;57119;52.516;13.508;2023-12-14T12:42:32;12.73;;;6.05;;
69822;SDS011;57119;52.516;13.508;2023-12-14T12:44:58;12.65;;;6.18;;
69822;SDS011;57119;52.516;13.508;2023-12-14T12:47:23;15.87;;;6.83;;
69822;SDS011;57119;52.516;13.508;2023-12-14T12:49:48;15.20;;;6.80;;
69822;SDS011;57119;52.516;13.508;2023-12-14T12:52:14;13.30;;;6.17;;
69822;SDS011;57119;52.516;13.508;2023-12-14T12:54:40;14.02;;;6.20;;
69822;SDS011;57119;52.516;13.508;2023-12-14T12:57:05;15.23;;;6.97;;
69822;SDS011;57119;52.516;13.508;2023-12-14T12:59:31;14.33;;;6.47;;
69822;SDS011;57119;52.516;13.508;2023-12-14T13:01:56;16.15;;;7.32;;
69822;SDS011;57119;52.516;13.508;2023-12-14T13:04:22;15.27;;;7.70;;
69822;SDS011;57119;52.516;13.508;2023-12-14T13:06:48;11.95;;;5.65;;
69822;SDS011;57119;52.516;13.508;2023-12-14T13:09:15;14.20;;;6.95;;
69822;SDS011;57119;52.516;13.508;2023-12-14T13:11:41;14.82;;;6.75;;
69822;SDS011;57119;52.516;13.508;2023-12-14T13:14:10;14.50;;;6.97;;
69822;SDS011;57119;52.516;13.508;2023-12-14T13:16:36;14.18;;;7.05;;
69822;SDS011;57119;52.516;13.508;2023-12-14T13:19:02;14.82;;;6.47;;
69822;SDS011;57119;52.516;13.508;2023-12-14T13:21:28;16.80;;;7.63;;
69822;SDS011;57119;52.516;13.508;2023-12-14T13:23:54;13.13;;;5.83;;
69822;SDS011;57119;52.516;13.508;2023-12-14T13:26:21;14.57;;;6.43;;
69822;SDS011;57119;52.516;13.508;2023-12-14T13:28:47;15.43;;;7.18;;
69822;SDS011;57119;52.516;13.508;2023-12-14T13:31:12;15.57;;;6.83;;
69822;SDS011;57119;52.516;13.508;2023-12-14T13:33:38;14.80;;;6.10;;
69822;SDS011;57119;52.516;13.508;2023-12-14T13:36:04;14.03;;;5.47;;
69822;SDS011;57119;52.516;13.508;2023-12-14T13:38:29;14.88;;;6.15;;
69822;SDS011;57119;52.516;13.508;2023-12-14T13:40:58;15.18;;;6.82;;
69822;SDS011;57119;52.516;13.508;2023-12-14T13:43:24;16.20;;;7.57;;
69822;SDS011;57119;52.516;13.508;2023-12-14T13:45:49;16.13;;;7.07;;
69822;SDS011;57119;52.516;13.508;2023-12-14T13:48:17;15.07;;;6.23;;
69822;SDS011;57119;52.516;13.508;2023-12-14T13:50:43;17.15;;;7.28;;
69822;SDS011;57119;52.516;13.508;2023-12-14T13:53:08;14.63;;;6.67;;
69822;SDS011;57119;52.516;13.508;2023-12-14T13:55:33;14.77;;;7.17;;
69822;SDS011;57119;52.516;13.508;2023-12-14T13:57:59;15.80;;;7.00;;
69822;SDS011;57119;52.516;13.508;2023-12-14T14:00:26;14.63;;;7.95;;
69822;SDS011;57119;52.516;13.508;2023-12-14T14:02:51;17.07;;;6.90;;
69822;SDS011;57119;52.516;13.508;2023-12-14T14:05:16;16.23;;;7.10;;
69822;SDS011;57119;52.516;13.508;2023-12-14T14:07:42;15.40;;;7.30;;
69822;SDS011;57119;52.516;13.508;2023-12-14T14:10:07;14.43;;;7.00;;
69822;SDS011;57119;52.516;13.508;2023-12-14T14:12:33;18.13;;;7.05;;
69822;SDS011;57119;52.516;13.508;2023-12-14T14:14:59;15.70;;;6.53;;
69822;SDS011;57119;52.516;13.508;2023-12-14T14:17:24;14.27;;;6.63;;
69822;SDS011;57119;52.516;13.508;2023-12-14T14:19:49;15.37;;;6.97;;
69822;SDS011;57119;52.516;13.508;2023-12-14T14:22:15;17.30;;;6.40;;
69822;SDS011;57119;52.516;13.508;2023-12-14T14:24:40;14.87;;;7.23;;
69822;SDS011;57119;52.516;13.508;2023-12-14T14:27:05;17.03;;;6.63;;